Detall de PIREP

Printer-friendly versionPDF version

[2012/12/23 08:41:00]
Flight IATA:CT1008
Pilot Number:042
Company ICAO:CAT
Aircraft Type:MD11/E
PAX:0
Aircraft Registration:CARGO
Departing Airport: LEBL
Destination Airport: OMDB
Alternate Airport:OMAA
Online: VATSIM
Route:VERSO UM24 LAPIT UN725 ORKUM UM603 ORVEX UM601 BALMA UR655 LEBOR R655 KTN A21 TAN G202 PUSTO M203 ILMAP UP975 SIDAD R784 PEBAT B416 DESDI
Flight Level:F350
No Slew and time accel
No pause
Crash detect
Detect pilot in Cockpit between each 30 and 45 minutes
08:41 Zero fuel Weight: 461298 Lbs, Fuel Weight: 139947 Lbs
08:41 VATSIM:LEBL 230830Z 31010KT 9999 FEW025 10/07 Q1022 NOSIG
08:41 VATSIM:OMDB 230800Z 02004KT 290V080 CAVOK 28/16 Q1018 NOSIG
08:42 VOICE CATALONIAN/EMERGENCIA SRI LANKA
08:44 Parking Brakes off
08:55 Take-off
08:55 Take off Weight: 598960 Lbs
08:55 Wind: 312º @ 010 Knots Heading: 247º
08:55 POS N41º 16´ 54´´ E002º 04´ 21´´
08:55 Gear Up: 173 Knots
08:55 Flaps:5 at 173 Knots
08:56 Flaps:4 at 191 Knots
08:56 Flaps:3 at 191 Knots
08:56 Flaps:2 at 191 Knots
08:56 Flaps:1 at 192 Knots
08:57 Flaps:0 at 216 Knots
09:10 Wind:300º@011 Knots Heading: 074º Ground Speed: 466 Knots Altitude 27339 ft
09:25 Wind:264º@015 Knots Heading: 098º Ground Speed: 488 Knots Altitude 30990 ft
09:40 Wind:243º@030 Knots Heading: 085º Ground Speed: 508 Knots Altitude 31840 ft
09:55 Wind:249º@011 Knots Heading: 106º Ground Speed: 481 Knots Altitude 33251 ft
10:10 Wind:336º@007 Knots Heading: 106º Ground Speed: 477 Knots Altitude 33234 ft
10:25 Wind:318º@026 Knots Heading: 096º Ground Speed: 493 Knots Altitude 33169 ft
10:40 Wind:351º@022 Knots Heading: 106º Ground Speed: 481 Knots Altitude 33152 ft
10:55 Wind:009º@033 Knots Heading: 112º Ground Speed: 479 Knots Altitude 33087 ft
11:10 Wind:357º@050 Knots Heading: 105º Ground Speed: 487 Knots Altitude 33087 ft
11:25 Wind:001º@075 Knots Heading: 088º Ground Speed: 468 Knots Altitude 32969 ft
11:40 Wind:076º@031 Knots Heading: 105º Ground Speed: 445 Knots Altitude 32933 ft
11:46 TOC
11:46 Fuel Weight: 76287 Lb
11:55 Wind:351º@015 Knots Heading: 105º Ground Speed: 482 Knots Altitude 35003 ft
12:10 Wind:185º@019 Knots Heading: 110º Ground Speed: 475 Knots Altitude 35049 ft
12:25 Wind:034º@019 Knots Heading: 106º Ground Speed: 475 Knots Altitude 35098 ft
12:40 Wind:062º@023 Knots Heading: 119º Ground Speed: 467 Knots Altitude 35118 ft
12:55 Wind:115º@037 Knots Heading: 093º Ground Speed: 448 Knots Altitude 35114 ft
13:10 Wind:128º@024 Knots Heading: 093º Ground Speed: 461 Knots Altitude 35200 ft
13:25 Wind:066º@008 Knots Heading: 120º Ground Speed: 476 Knots Altitude 35252 ft
13:40 Wind:002º@010 Knots Heading: 116º Ground Speed: 484 Knots Altitude 35219 ft
13:55 Wind:340º@035 Knots Heading: 136º Ground Speed: 512 Knots Altitude 35196 ft
14:10 Wind:353º@048 Knots Heading: 129º Ground Speed: 514 Knots Altitude 35147 ft
14:25 Wind:184º@038 Knots Heading: 126º Ground Speed: 464 Knots Altitude 35141 ft
14:40 Wind:280º@047 Knots Heading: 125º Ground Speed: 526 Knots Altitude 35055 ft
14:42 TOD
14:42 Fuel Weight: 26859 Lb
14:53 Flaps:1 at 272 Knots
14:54 Flaps:2 at 226 Knots
14:54 Flaps:3 at 226 Knots
14:55 Wind:302º@029 Knots Heading: 121º Ground Speed: 304 Knots Altitude 12828 ft
14:57 Flaps:4 at 227 Knots
14:57 Flaps:3 at 227 Knots
14:57 Flaps:4 at 227 Knots
14:57 Flaps:5 at 222 Knots
14:57 Flaps:6 at 212 Knots
15:10 Wind:314º@009 Knots Heading: 288º Ground Speed: 190 Knots Altitude 4826 ft
15:12 Flaps:7 at 186 Knots
15:12 Gear Down: 184 Knots
15:15 Flaps:8 at 174 Knots
15:18 TouchDown:Rate -203 ft/min Speed: 159 Knots
15:18 VATSIM:OMDB 231500Z 30005KT CAVOK 25/19 Q1017 NOSIG
15:18 Land
15:18 Wind:298º@005 Knots
15:18 Heading: 301º
15:18 Flight Duration: 06:23
15:18 Landing Weight: 476471 Lbs
15:18 POS N25º 15´ 02´´ E055º 22´ 04´´
15:23 Parking brakes on
15:23 Block to Block Duration: 06:39
15:23 Final Fuel: 14592 Lbls
15:23 Spent Fuel: 125355 Lbls
15:23 Flight Length: 2861 NM
15:23 TOD Land Length: 105 NM

Exportar CSV

Powered by Drupal - Modified by Danger4k